sensor_id;sensor_type;location;lat;lon;timestamp;P1;durP1;ratioP1;P2;durP2;ratioP2
3259;SDS011;22469;48.150;14.004;2023-02-28T00:01:57;8.00;;;6.07;;
3259;SDS011;22469;48.150;14.004;2023-02-28T00:04:41;7.10;;;6.20;;
3259;SDS011;22469;48.150;14.004;2023-02-28T00:07:25;7.83;;;6.87;;
3259;SDS011;22469;48.150;14.004;2023-02-28T00:10:12;9.70;;;6.63;;
3259;SDS011;22469;48.150;14.004;2023-02-28T00:13:05;8.20;;;6.80;;
3259;SDS011;22469;48.150;14.004;2023-02-28T00:15:58;8.63;;;6.30;;
3259;SDS011;22469;48.150;14.004;2023-02-28T00:18:44;8.33;;;6.87;;
3259;SDS011;22469;48.150;14.004;2023-02-28T00:21:29;12.17;;;6.90;;
3259;SDS011;22469;48.150;14.004;2023-02-28T00:24:13;10.60;;;8.27;;
3259;SDS011;22469;48.150;14.004;2023-02-28T00:26:58;10.40;;;7.17;;
3259;SDS011;22469;48.150;14.004;2023-02-28T00:29:42;11.63;;;8.47;;
3259;SDS011;22469;48.150;14.004;2023-02-28T00:32:26;8.37;;;7.53;;
3259;SDS011;22469;48.150;14.004;2023-02-28T00:35:11;10.20;;;6.57;;
3259;SDS011;22469;48.150;14.004;2023-02-28T00:37:56;9.90;;;8.10;;
3259;SDS011;22469;48.150;14.004;2023-02-28T00:40:40;8.30;;;7.50;;
3259;SDS011;22469;48.150;14.004;2023-02-28T00:43:25;11.23;;;10.03;;
3259;SDS011;22469;48.150;14.004;2023-02-28T00:46:09;10.77;;;9.77;;
3259;SDS011;22469;48.150;14.004;2023-02-28T00:48:37;12.53;;;9.27;;
3259;SDS011;22469;48.150;14.004;2023-02-28T00:51:04;11.30;;;9.17;;
3259;SDS011;22469;48.150;14.004;2023-02-28T00:53:32;10.93;;;9.10;;
3259;SDS011;22469;48.150;14.004;2023-02-28T00:55:59;10.23;;;8.90;;
3259;SDS011;22469;48.150;14.004;2023-02-28T00:58:27;9.27;;;7.73;;
3259;SDS011;22469;48.150;14.004;2023-02-28T01:00:54;11.50;;;10.40;;
3259;SDS011;22469;48.150;14.004;2023-02-28T01:03:21;11.93;;;8.87;;
3259;SDS011;22469;48.150;14.004;2023-02-28T01:05:49;14.13;;;9.73;;
3259;SDS011;22469;48.150;14.004;2023-02-28T01:08:17;13.73;;;10.23;;
3259;SDS011;22469;48.150;14.004;2023-02-28T01:10:44;16.03;;;9.60;;
3259;SDS011;22469;48.150;14.004;2023-02-28T01:13:11;13.47;;;10.70;;
3259;SDS011;22469;48.150;14.004;2023-02-28T01:15:48;13.87;;;10.03;;
3259;SDS011;22469;48.150;14.004;2023-02-28T01:18:19;14.47;;;9.77;;
3259;SDS011;22469;48.150;14.004;2023-02-28T01:20:47;14.63;;;10.73;;
3259;SDS011;22469;48.150;14.004;2023-02-28T01:23:15;12.80;;;10.60;;
3259;SDS011;22469;48.150;14.004;2023-02-28T01:25:42;12.50;;;10.53;;
3259;SDS011;22469;48.150;14.004;2023-02-28T01:28:09;17.27;;;11.63;;
3259;SDS011;22469;48.150;14.004;2023-02-28T01:30:36;13.97;;;10.63;;
3259;SDS011;22469;48.150;14.004;2023-02-28T01:33:03;13.37;;;10.13;;
3259;SDS011;22469;48.150;14.004;2023-02-28T01:35:34;12.07;;;9.30;;
3259;SDS011;22469;48.150;14.004;2023-02-28T01:38:02;13.77;;;10.50;;
3259;SDS011;22469;48.150;14.004;2023-02-28T01:40:46;13.90;;;10.93;;
3259;SDS011;22469;48.150;14.004;2023-02-28T01:43:21;13.67;;;10.53;;
3259;SDS011;22469;48.150;14.004;2023-02-28T01:45:58;16.13;;;10.97;;
3259;SDS011;22469;48.150;14.004;2023-02-28T01:48:27;14.97;;;9.43;;
3259;SDS011;22469;48.150;14.004;2023-02-28T01:51:05;17.53;;;10.90;;
3259;SDS011;22469;48.150;14.004;2023-02-28T01:53:48;14.17;;;10.50;;
3259;SDS011;22469;48.150;14.004;2023-02-28T01:56:24;13.70;;;9.77;;
3259;SDS011;22469;48.150;14.004;2023-02-28T01:58:57;12.77;;;9.93;;
3259;SDS011;22469;48.150;14.004;2023-02-28T02:01:25;22.83;;;11.40;;
3259;SDS011;22469;48.150;14.004;2023-02-28T02:03:55;12.67;;;9.70;;
3259;SDS011;22469;48.150;14.004;2023-02-28T02:06:44;13.60;;;9.93;;
3259;SDS011;22469;48.150;14.004;2023-02-28T02:09:14;20.70;;;10.57;;
3259;SDS011;22469;48.150;14.004;2023-02-28T02:11:42;13.93;;;10.50;;
3259;SDS011;22469;48.150;14.004;2023-02-28T02:25:15;18.47;;;12.47;;
3259;SDS011;22469;48.150;14.004;2023-02-28T02:34:29;18.90;;;12.83;;
3259;SDS011;22469;48.150;14.004;2023-02-28T02:42:56;12.47;;;9.37;;
3259;SDS011;22469;48.150;14.004;2023-02-28T02:46:02;16.53;;;11.00;;
3259;SDS011;22469;48.150;14.004;2023-02-28T02:48:38;19.10;;;12.33;;
3259;SDS011;22469;48.150;14.004;2023-02-28T02:51:13;16.53;;;11.00;;
3259;SDS011;22469;48.150;14.004;2023-02-28T02:53:47;16.97;;;12.20;;
3259;SDS011;22469;48.150;14.004;2023-02-28T02:56:25;12.03;;;10.27;;
3259;SDS011;22469;48.150;14.004;2023-02-28T02:58:57;13.83;;;10.27;;
3259;SDS011;22469;48.150;14.004;2023-02-28T03:01:30;17.10;;;10.17;;
3259;SDS011;22469;48.150;14.004;2023-02-28T03:04:00;16.47;;;10.93;;
3259;SDS011;22469;48.150;14.004;2023-02-28T03:06:31;18.07;;;12.53;;
3259;SDS011;22469;48.150;14.004;2023-02-28T03:08:59;17.53;;;12.30;;
3259;SDS011;22469;48.150;14.004;2023-02-28T03:11:27;15.60;;;11.90;;
3259;SDS011;22469;48.150;14.004;2023-02-28T03:27:40;17.30;;;13.13;;
3259;SDS011;22469;48.150;14.004;2023-02-28T03:30:25;17.73;;;12.37;;
3259;SDS011;22469;48.150;14.004;2023-02-28T03:33:13;16.67;;;12.07;;
3259;SDS011;22469;48.150;14.004;2023-02-28T03:35:56;18.27;;;12.87;;
3259;SDS011;22469;48.150;14.004;2023-02-28T03:38:35;16.43;;;11.57;;
3259;SDS011;22469;48.150;14.004;2023-02-28T03:41:16;17.30;;;11.67;;
3259;SDS011;22469;48.150;14.004;2023-02-28T03:43:52;19.50;;;12.60;;
3259;SDS011;22469;48.150;14.004;2023-02-28T03:46:34;20.83;;;12.93;;
3259;SDS011;22469;48.150;14.004;2023-02-28T03:49:17;20.77;;;11.80;;
3259;SDS011;22469;48.150;14.004;2023-02-28T03:51:49;15.67;;;9.53;;
3259;SDS011;22469;48.150;14.004;2023-02-28T03:54:21;15.43;;;11.43;;
3259;SDS011;22469;48.150;14.004;2023-02-28T03:57:10;15.07;;;10.13;;
3259;SDS011;22469;48.150;14.004;2023-02-28T03:59:56;17.87;;;12.67;;
3259;SDS011;22469;48.150;14.004;2023-02-28T04:02:27;15.53;;;11.77;;
3259;SDS011;22469;48.150;14.004;2023-02-28T04:04:54;18.40;;;12.90;;
3259;SDS011;22469;48.150;14.004;2023-02-28T04:07:21;17.50;;;12.50;;
3259;SDS011;22469;48.150;14.004;2023-02-28T04:09:48;18.17;;;12.30;;
3259;SDS011;22469;48.150;14.004;2023-02-28T04:12:15;15.13;;;9.93;;
3259;SDS011;22469;48.150;14.004;2023-02-28T04:14:42;20.17;;;11.27;;
3259;SDS011;22469;48.150;14.004;2023-02-28T04:17:09;17.97;;;13.13;;
3259;SDS011;22469;48.150;14.004;2023-02-28T04:19:36;14.60;;;11.30;;
3259;SDS011;22469;48.150;14.004;2023-02-28T04:22:03;17.00;;;11.63;;
3259;SDS011;22469;48.150;14.004;2023-02-28T04:24:30;14.87;;;11.50;;
3259;SDS011;22469;48.150;14.004;2023-02-28T04:26:57;18.53;;;12.80;;
3259;SDS011;22469;48.150;14.004;2023-02-28T04:29:26;19.93;;;14.60;;
3259;SDS011;22469;48.150;14.004;2023-02-28T04:31:56;13.60;;;10.70;;
3259;SDS011;22469;48.150;14.004;2023-02-28T04:34:26;16.70;;;11.07;;
3259;SDS011;22469;48.150;14.004;2023-02-28T04:36:55;13.60;;;10.90;;
3259;SDS011;22469;48.150;14.004;2023-02-28T04:39:40;19.23;;;12.63;;
3259;SDS011;22469;48.150;14.004;2023-02-28T04:42:08;16.47;;;10.90;;
3259;SDS011;22469;48.150;14.004;2023-02-28T04:44:36;16.40;;;10.20;;
3259;SDS011;22469;48.150;14.004;2023-02-28T04:47:03;13.60;;;11.00;;
3259;SDS011;22469;48.150;14.004;2023-02-28T04:49:30;16.47;;;10.70;;
3259;SDS011;22469;48.150;14.004;2023-02-28T04:51:57;19.23;;;12.63;;
3259;SDS011;22469;48.150;14.004;2023-02-28T04:54:24;15.77;;;10.60;;
3259;SDS011;22469;48.150;14.004;2023-02-28T04:56:51;16.10;;;11.13;;
3259;SDS011;22469;48.150;14.004;2023-02-28T04:59:18;18.10;;;13.00;;
3259;SDS011;22469;48.150;14.004;2023-02-28T05:01:46;17.27;;;11.77;;
3259;SDS011;22469;48.150;14.004;2023-02-28T05:04:14;16.90;;;11.20;;
3259;SDS011;22469;48.150;14.004;2023-02-28T05:06:43;13.40;;;11.30;;
3259;SDS011;22469;48.150;14.004;2023-02-28T05:09:10;17.63;;;12.47;;
3259;SDS011;22469;48.150;14.004;2023-02-28T05:11:40;15.27;;;11.70;;
3259;SDS011;22469;48.150;14.004;2023-02-28T05:14:12;17.07;;;10.20;;
3259;SDS011;22469;48.150;14.004;2023-02-28T05:16:40;16.77;;;9.93;;
3259;SDS011;22469;48.150;14.004;2023-02-28T05:19:08;17.93;;;11.07;;
3259;SDS011;22469;48.150;14.004;2023-02-28T05:21:36;19.07;;;12.40;;
3259;SDS011;22469;48.150;14.004;2023-02-28T05:24:09;17.33;;;12.20;;
3259;SDS011;22469;48.150;14.004;2023-02-28T05:26:39;21.00;;;11.40;;
3259;SDS011;22469;48.150;14.004;2023-02-28T05:29:09;14.40;;;11.20;;
3259;SDS011;22469;48.150;14.004;2023-02-28T05:31:36;15.27;;;11.37;;
3259;SDS011;22469;48.150;14.004;2023-02-28T05:34:04;18.30;;;12.00;;
3259;SDS011;22469;48.150;14.004;2023-02-28T05:36:32;19.80;;;11.90;;
3259;SDS011;22469;48.150;14.004;2023-02-28T05:38:59;11.63;;;10.10;;
3259;SDS011;22469;48.150;14.004;2023-02-28T05:41:26;17.30;;;11.30;;
3259;SDS011;22469;48.150;14.004;2023-02-28T05:43:54;16.50;;;11.63;;
3259;SDS011;22469;48.150;14.004;2023-02-28T05:46:21;18.87;;;12.27;;
3259;SDS011;22469;48.150;14.004;2023-02-28T05:48:50;16.17;;;12.20;;
3259;SDS011;22469;48.150;14.004;2023-02-28T05:51:17;16.10;;;10.47;;
3259;SDS011;22469;48.150;14.004;2023-02-28T05:53:44;15.90;;;11.30;;
3259;SDS011;22469;48.150;14.004;2023-02-28T05:56:12;20.67;;;11.23;;
3259;SDS011;22469;48.150;14.004;2023-02-28T05:58:39;16.93;;;13.40;;
3259;SDS011;22469;48.150;14.004;2023-02-28T06:01:19;17.20;;;11.37;;
3259;SDS011;22469;48.150;14.004;2023-02-28T06:03:47;15.70;;;11.47;;
3259;SDS011;22469;48.150;14.004;2023-02-28T06:06:14;20.30;;;12.47;;
3259;SDS011;22469;48.150;14.004;2023-02-28T06:08:41;20.20;;;13.07;;
3259;SDS011;22469;48.150;14.004;2023-02-28T06:11:09;17.90;;;12.73;;
3259;SDS011;22469;48.150;14.004;2023-02-28T06:13:36;14.83;;;11.23;;
3259;SDS011;22469;48.150;14.004;2023-02-28T06:16:03;16.13;;;11.03;;
3259;SDS011;22469;48.150;14.004;2023-02-28T06:18:31;16.57;;;11.27;;
3259;SDS011;22469;48.150;14.004;2023-02-28T06:20:58;20.70;;;14.17;;
3259;SDS011;22469;48.150;14.004;2023-02-28T06:23:25;19.20;;;14.07;;
3259;SDS011;22469;48.150;14.004;2023-02-28T06:25:52;19.47;;;13.40;;
3259;SDS011;22469;48.150;14.004;2023-02-28T06:28:19;18.40;;;13.13;;
3259;SDS011;22469;48.150;14.004;2023-02-28T06:30:47;21.23;;;13.17;;
3259;SDS011;22469;48.150;14.004;2023-02-28T06:33:14;19.90;;;12.23;;
3259;SDS011;22469;48.150;14.004;2023-02-28T06:35:43;17.80;;;13.00;;
3259;SDS011;22469;48.150;14.004;2023-02-28T06:38:11;18.30;;;11.87;;
3259;SDS011;22469;48.150;14.004;2023-02-28T06:40:38;18.53;;;12.20;;
3259;SDS011;22469;48.150;14.004;2023-02-28T06:43:05;17.70;;;12.90;;
3259;SDS011;22469;48.150;14.004;2023-02-28T06:45:32;13.37;;;11.90;;
3259;SDS011;22469;48.150;14.004;2023-02-28T06:47:59;15.53;;;12.67;;
3259;SDS011;22469;48.150;14.004;2023-02-28T06:50:26;20.87;;;12.90;;
3259;SDS011;22469;48.150;14.004;2023-02-28T06:52:55;16.17;;;12.30;;
3259;SDS011;22469;48.150;14.004;2023-02-28T06:55:22;19.30;;;12.37;;
3259;SDS011;22469;48.150;14.004;2023-02-28T06:57:49;17.33;;;12.23;;
3259;SDS011;22469;48.150;14.004;2023-02-28T07:00:17;19.50;;;11.30;;
3259;SDS011;22469;48.150;14.004;2023-02-28T07:02:44;17.60;;;11.93;;
3259;SDS011;22469;48.150;14.004;2023-02-28T07:05:11;16.87;;;12.07;;
3259;SDS011;22469;48.150;14.004;2023-02-28T07:07:38;18.90;;;11.20;;
3259;SDS011;22469;48.150;14.004;2023-02-28T07:10:10;18.23;;;12.63;;
3259;SDS011;22469;48.150;14.004;2023-02-28T07:12:39;15.30;;;11.80;;
3259;SDS011;22469;48.150;14.004;2023-02-28T07:15:06;18.47;;;13.00;;
3259;SDS011;22469;48.150;14.004;2023-02-28T07:17:33;19.10;;;12.50;;
3259;SDS011;22469;48.150;14.004;2023-02-28T07:20:01;17.13;;;12.30;;
3259;SDS011;22469;48.150;14.004;2023-02-28T07:22:28;16.47;;;12.63;;
3259;SDS011;22469;48.150;14.004;2023-02-28T07:24:55;17.53;;;13.17;;
3259;SDS011;22469;48.150;14.004;2023-02-28T07:27:21;18.07;;;11.67;;
3259;SDS011;22469;48.150;14.004;2023-02-28T07:29:52;17.13;;;12.27;;
3259;SDS011;22469;48.150;14.004;2023-02-28T07:32:21;17.33;;;12.10;;
3259;SDS011;22469;48.150;14.004;2023-02-28T07:34:48;21.30;;;13.03;;
3259;SDS011;22469;48.150;14.004;2023-02-28T07:37:15;16.50;;;11.40;;
3259;SDS011;22469;48.150;14.004;2023-02-28T07:39:42;16.30;;;12.77;;
3259;SDS011;22469;48.150;14.004;2023-02-28T07:42:09;15.37;;;11.87;;
3259;SDS011;22469;48.150;14.004;2023-02-28T07:44:38;20.00;;;14.73;;
3259;SDS011;22469;48.150;14.004;2023-02-28T07:47:07;16.20;;;13.10;;
3259;SDS011;22469;48.150;14.004;2023-02-28T07:49:36;11.77;;;9.67;;
3259;SDS011;22469;48.150;14.004;2023-02-28T07:52:04;17.30;;;12.67;;
3259;SDS011;22469;48.150;14.004;2023-02-28T07:54:33;17.77;;;13.03;;
3259;SDS011;22469;48.150;14.004;2023-02-28T07:57:00;16.73;;;11.80;;
3259;SDS011;22469;48.150;14.004;2023-02-28T07:59:27;16.50;;;13.30;;
3259;SDS011;22469;48.150;14.004;2023-02-28T08:01:57;20.07;;;12.70;;
3259;SDS011;22469;48.150;14.004;2023-02-28T08:04:26;19.77;;;12.87;;
3259;SDS011;22469;48.150;14.004;2023-02-28T08:06:53;17.30;;;13.27;;
3259;SDS011;22469;48.150;14.004;2023-02-28T08:09:20;16.43;;;11.80;;
3259;SDS011;22469;48.150;14.004;2023-02-28T08:11:47;19.30;;;11.13;;
3259;SDS011;22469;48.150;14.004;2023-02-28T08:14:14;16.03;;;11.43;;
3259;SDS011;22469;48.150;14.004;2023-02-28T08:16:41;19.00;;;12.90;;
3259;SDS011;22469;48.150;14.004;2023-02-28T08:19:09;16.43;;;11.93;;
3259;SDS011;22469;48.150;14.004;2023-02-28T08:21:36;18.87;;;11.73;;
3259;SDS011;22469;48.150;14.004;2023-02-28T08:24:03;18.87;;;12.37;;
3259;SDS011;22469;48.150;14.004;2023-02-28T08:26:30;16.53;;;11.30;;
3259;SDS011;22469;48.150;14.004;2023-02-28T08:28:57;13.50;;;11.93;;
3259;SDS011;22469;48.150;14.004;2023-02-28T08:31:26;16.13;;;11.13;;
3259;SDS011;22469;48.150;14.004;2023-02-28T08:33:54;15.10;;;12.10;;
3259;SDS011;22469;48.150;14.004;2023-02-28T08:36:25;15.50;;;11.67;;
3259;SDS011;22469;48.150;14.004;2023-02-28T08:38:56;18.00;;;12.13;;
3259;SDS011;22469;48.150;14.004;2023-02-28T08:41:24;14.67;;;10.10;;
3259;SDS011;22469;48.150;14.004;2023-02-28T08:43:51;14.40;;;11.23;;
3259;SDS011;22469;48.150;14.004;2023-02-28T08:46:20;19.63;;;11.93;;
3259;SDS011;22469;48.150;14.004;2023-02-28T08:48:50;13.53;;;10.20;;
3259;SDS011;22469;48.150;14.004;2023-02-28T08:51:20;17.47;;;13.37;;
3259;SDS011;22469;48.150;14.004;2023-02-28T08:53:54;18.20;;;13.53;;
3259;SDS011;22469;48.150;14.004;2023-02-28T08:56:26;15.60;;;11.57;;
3259;SDS011;22469;48.150;14.004;2023-02-28T08:58:55;15.80;;;12.87;;
3259;SDS011;22469;48.150;14.004;2023-02-28T09:01:24;15.43;;;11.30;;
3259;SDS011;22469;48.150;14.004;2023-02-28T09:03:55;15.10;;;11.77;;
3259;SDS011;22469;48.150;14.004;2023-02-28T09:06:24;15.07;;;11.53;;
3259;SDS011;22469;48.150;14.004;2023-02-28T09:08:55;17.83;;;13.30;;
3259;SDS011;22469;48.150;14.004;2023-02-28T09:11:25;15.23;;;11.37;;
3259;SDS011;22469;48.150;14.004;2023-02-28T09:13:52;13.50;;;12.10;;
3259;SDS011;22469;48.150;14.004;2023-02-28T09:16:19;13.67;;;10.50;;
3259;SDS011;22469;48.150;14.004;2023-02-28T09:18:46;16.20;;;12.10;;
3259;SDS011;22469;48.150;14.004;2023-02-28T09:21:15;14.67;;;12.70;;
3259;SDS011;22469;48.150;14.004;2023-02-28T09:23:45;15.53;;;12.07;;
3259;SDS011;22469;48.150;14.004;2023-02-28T09:26:15;14.20;;;9.77;;
3259;SDS011;22469;48.150;14.004;2023-02-28T09:28:45;16.27;;;12.70;;
3259;SDS011;22469;48.150;14.004;2023-02-28T09:31:13;17.30;;;12.30;;
3259;SDS011;22469;48.150;14.004;2023-02-28T09:33:43;19.70;;;14.60;;
3259;SDS011;22469;48.150;14.004;2023-02-28T09:36:10;16.70;;;11.13;;
3259;SDS011;22469;48.150;14.004;2023-02-28T09:38:37;15.30;;;11.47;;
3259;SDS011;22469;48.150;14.004;2023-02-28T09:41:10;15.40;;;12.03;;
3259;SDS011;22469;48.150;14.004;2023-02-28T09:43:52;13.00;;;10.53;;
3259;SDS011;22469;48.150;14.004;2023-02-28T09:46:28;14.47;;;11.80;;
3259;SDS011;22469;48.150;14.004;2023-02-28T09:49:12;15.60;;;13.03;;
3259;SDS011;22469;48.150;14.004;2023-02-28T09:54:37;13.93;;;12.40;;
3259;SDS011;22469;48.150;14.004;2023-02-28T10:03:36;15.30;;;11.83;;
3259;SDS011;22469;48.150;14.004;2023-02-28T10:05:56;15.23;;;11.70;;
3259;SDS011;22469;48.150;14.004;2023-02-28T10:08:36;9.10;;;7.93;;
3259;SDS011;22469;48.150;14.004;2023-02-28T10:11:12;16.80;;;12.23;;
3259;SDS011;22469;48.150;14.004;2023-02-28T10:16:34;14.57;;;12.03;;
3259;SDS011;22469;48.150;14.004;2023-02-28T10:22:19;21.13;;;11.90;;
3259;SDS011;22469;48.150;14.004;2023-02-28T10:25:21;15.37;;;12.63;;
3259;SDS011;22469;48.150;14.004;2023-02-28T10:27:59;14.97;;;12.90;;
3259;SDS011;22469;48.150;14.004;2023-02-28T10:30:36;13.97;;;10.43;;
3259;SDS011;22469;48.150;14.004;2023-02-28T10:33:14;15.53;;;13.77;;
3259;SDS011;22469;48.150;14.004;2023-02-28T10:35:50;15.83;;;11.20;;
3259;SDS011;22469;48.150;14.004;2023-02-28T10:38:20;15.93;;;12.13;;
3259;SDS011;22469;48.150;14.004;2023-02-28T10:41:08;14.80;;;11.63;;
3259;SDS011;22469;48.150;14.004;2023-02-28T10:43:54;16.07;;;11.73;;
3259;SDS011;22469;48.150;14.004;2023-02-28T10:46:44;12.93;;;11.60;;
3259;SDS011;22469;48.150;14.004;2023-02-28T10:49:14;15.70;;;13.10;;
3259;SDS011;22469;48.150;14.004;2023-02-28T10:51:50;11.83;;;10.63;;
3259;SDS011;22469;48.150;14.004;2023-02-28T10:54:27;14.70;;;12.30;;
3259;SDS011;22469;48.150;14.004;2023-02-28T10:57:06;13.40;;;10.63;;
3259;SDS011;22469;48.150;14.004;2023-02-28T10:59:33;15.33;;;12.00;;
3259;SDS011;22469;48.150;14.004;2023-02-28T11:02:00;13.30;;;11.77;;
3259;SDS011;22469;48.150;14.004;2023-02-28T11:06:59;12.77;;;11.33;;
3259;SDS011;22469;48.150;14.004;2023-02-28T11:09:33;11.90;;;10.57;;
3259;SDS011;22469;48.150;14.004;2023-02-28T11:12:16;16.17;;;12.10;;
3259;SDS011;22469;48.150;14.004;2023-02-28T11:15:34;12.23;;;10.93;;
3259;SDS011;22469;48.150;14.004;2023-02-28T11:18:21;14.30;;;12.80;;
3259;SDS011;22469;48.150;14.004;2023-02-28T11:21:26;13.30;;;12.00;;
3259;SDS011;22469;48.150;14.004;2023-02-28T11:26:46;13.77;;;12.27;;
3259;SDS011;22469;48.150;14.004;2023-02-28T11:29:22;12.60;;;11.30;;
3259;SDS011;22469;48.150;14.004;2023-02-28T11:34:29;14.63;;;12.60;;
3259;SDS011;22469;48.150;14.004;2023-02-28T11:36:57;12.10;;;10.90;;
3259;SDS011;22469;48.150;14.004;2023-02-28T11:39:26;13.47;;;11.00;;
3259;SDS011;22469;48.150;14.004;2023-02-28T11:53:39;14.10;;;9.60;;
3259;SDS011;22469;48.150;14.004;2023-02-28T11:56:31;11.60;;;10.50;;
3259;SDS011;22469;48.150;14.004;2023-02-28T12:18:49;13.73;;;10.90;;
3259;SDS011;22469;48.150;14.004;2023-02-28T12:27:22;12.87;;;11.07;;
3259;SDS011;22469;48.150;14.004;2023-02-28T12:29:57;18.00;;;11.10;;
3259;SDS011;22469;48.150;14.004;2023-02-28T12:32:30;12.03;;;10.30;;
3259;SDS011;22469;48.150;14.004;2023-02-28T12:37:40;14.83;;;12.43;;
3259;SDS011;22469;48.150;14.004;2023-02-28T12:40:15;13.50;;;12.20;;
3259;SDS011;22469;48.150;14.004;2023-02-28T12:42:50;15.70;;;12.90;;
3259;SDS011;22469;48.150;14.004;2023-02-28T12:48:18;14.27;;;12.67;;
3259;SDS011;22469;48.150;14.004;2023-02-28T12:51:03;13.07;;;11.53;;
3259;SDS011;22469;48.150;14.004;2023-02-28T13:10:22;15.73;;;13.60;;
3259;SDS011;22469;48.150;14.004;2023-02-28T13:12:52;14.83;;;12.40;;
3259;SDS011;22469;48.150;14.004;2023-02-28T13:15:25;15.70;;;14.10;;
3259;SDS011;22469;48.150;14.004;2023-02-28T13:17:56;17.07;;;12.33;;
3259;SDS011;22469;48.150;14.004;2023-02-28T13:20:35;21.33;;;11.73;;
3259;SDS011;22469;48.150;14.004;2023-02-28T13:23:03;15.00;;;11.90;;
3259;SDS011;22469;48.150;14.004;2023-02-28T13:26:13;12.20;;;10.90;;
3259;SDS011;22469;48.150;14.004;2023-02-28T13:39:54;14.20;;;10.93;;
3259;SDS011;22469;48.150;14.004;2023-02-28T13:42:46;13.07;;;9.23;;
3259;SDS011;22469;48.150;14.004;2023-02-28T13:45:20;13.33;;;11.27;;
3259;SDS011;22469;48.150;14.004;2023-02-28T13:47:55;11.20;;;10.10;;
3259;SDS011;22469;48.150;14.004;2023-02-28T14:07:17;13.23;;;11.67;;
3259;SDS011;22469;48.150;14.004;2023-02-28T14:09:53;15.80;;;12.67;;
3259;SDS011;22469;48.150;14.004;2023-02-28T14:15:26;17.40;;;13.60;;
3259;SDS011;22469;48.150;14.004;2023-02-28T14:20:54;14.87;;;13.00;;
3259;SDS011;22469;48.150;14.004;2023-02-28T14:26:50;13.37;;;12.00;;
3259;SDS011;22469;48.150;14.004;2023-02-28T14:32:26;12.03;;;10.60;;
3259;SDS011;22469;48.150;14.004;2023-02-28T14:37:59;14.90;;;12.00;;
3259;SDS011;22469;48.150;14.004;2023-02-28T14:40:33;17.97;;;13.20;;
3259;SDS011;22469;48.150;14.004;2023-02-28T14:43:06;16.30;;;12.07;;
3259;SDS011;22469;48.150;14.004;2023-02-28T14:45:52;14.13;;;12.60;;
3259;SDS011;22469;48.150;14.004;2023-02-28T14:48:26;17.40;;;12.63;;
3259;SDS011;22469;48.150;14.004;2023-02-28T14:50:56;13.90;;;12.50;;
3259;SDS011;22469;48.150;14.004;2023-02-28T14:53:28;14.30;;;12.80;;
3259;SDS011;22469;48.150;14.004;2023-02-28T14:56:02;14.13;;;11.83;;
3259;SDS011;22469;48.150;14.004;2023-02-28T14:58:31;14.97;;;12.73;;
3259;SDS011;22469;48.150;14.004;2023-02-28T15:01:01;14.80;;;12.53;;
3259;SDS011;22469;48.150;14.004;2023-02-28T15:06:06;17.27;;;13.67;;
3259;SDS011;22469;48.150;14.004;2023-02-28T15:08:48;17.83;;;15.40;;
3259;SDS011;22469;48.150;14.004;2023-02-28T15:11:18;15.37;;;13.77;;
3259;SDS011;22469;48.150;14.004;2023-02-28T15:13:50;16.83;;;14.43;;
3259;SDS011;22469;48.150;14.004;2023-02-28T15:16:25;19.70;;;14.83;;
3259;SDS011;22469;48.150;14.004;2023-02-28T15:19:05;16.00;;;14.30;;
3259;SDS011;22469;48.150;14.004;2023-02-28T15:21:41;19.50;;;13.30;;
3259;SDS011;22469;48.150;14.004;2023-02-28T15:27:12;17.40;;;13.50;;
3259;SDS011;22469;48.150;14.004;2023-02-28T15:29:49;16.63;;;13.93;;
3259;SDS011;22469;48.150;14.004;2023-02-28T15:35:46;15.67;;;13.20;;
3259;SDS011;22469;48.150;14.004;2023-02-28T15:40:38;16.37;;;14.00;;
3259;SDS011;22469;48.150;14.004;2023-02-28T15:48:28;17.90;;;14.00;;
3259;SDS011;22469;48.150;14.004;2023-02-28T15:51:24;16.70;;;14.30;;
3259;SDS011;22469;48.150;14.004;2023-02-28T15:56:38;17.70;;;15.70;;
3259;SDS011;22469;48.150;14.004;2023-02-28T15:59:17;18.40;;;15.07;;
3259;SDS011;22469;48.150;14.004;2023-02-28T16:02:01;16.70;;;14.77;;
3259;SDS011;22469;48.150;14.004;2023-02-28T16:04:54;18.00;;;14.40;;
3259;SDS011;22469;48.150;14.004;2023-02-28T16:07:27;17.90;;;15.07;;
3259;SDS011;22469;48.150;14.004;2023-02-28T16:09:56;17.63;;;14.40;;
3259;SDS011;22469;48.150;14.004;2023-02-28T16:12:25;19.43;;;14.80;;
3259;SDS011;22469;48.150;14.004;2023-02-28T16:14:57;17.70;;;14.73;;
3259;SDS011;22469;48.150;14.004;2023-02-28T16:17:30;20.37;;;15.30;;
3259;SDS011;22469;48.150;14.004;2023-02-28T16:20:05;22.20;;;17.00;;
3259;SDS011;22469;48.150;14.004;2023-02-28T16:22:46;17.23;;;13.40;;
3259;SDS011;22469;48.150;14.004;2023-02-28T16:25:14;18.43;;;14.80;;
3259;SDS011;22469;48.150;14.004;2023-02-28T16:27:45;17.23;;;13.83;;
3259;SDS011;22469;48.150;14.004;2023-02-28T16:30:26;18.50;;;16.60;;
3259;SDS011;22469;48.150;14.004;2023-02-28T16:32:58;19.27;;;17.20;;
3259;SDS011;22469;48.150;14.004;2023-02-28T16:35:25;19.07;;;15.90;;
3259;SDS011;22469;48.150;14.004;2023-02-28T16:37:52;19.70;;;15.70;;
3259;SDS011;22469;48.150;14.004;2023-02-28T16:40:24;18.90;;;14.63;;
3259;SDS011;22469;48.150;14.004;2023-02-28T16:42:55;19.83;;;15.93;;
3259;SDS011;22469;48.150;14.004;2023-02-28T16:45:27;19.70;;;14.20;;
3259;SDS011;22469;48.150;14.004;2023-02-28T16:47:55;18.27;;;15.70;;
3259;SDS011;22469;48.150;14.004;2023-02-28T16:50:23;18.17;;;14.70;;
3259;SDS011;22469;48.150;14.004;2023-02-28T16:52:57;19.13;;;15.83;;
3259;SDS011;22469;48.150;14.004;2023-02-28T16:55:24;22.27;;;16.33;;
3259;SDS011;22469;48.150;14.004;2023-02-28T16:57:57;23.37;;;18.70;;
3259;SDS011;22469;48.150;14.004;2023-02-28T17:00:27;24.43;;;19.80;;
3259;SDS011;22469;48.150;14.004;2023-02-28T17:02:55;22.87;;;17.73;;
3259;SDS011;22469;48.150;14.004;2023-02-28T17:05:23;17.70;;;15.60;;
3259;SDS011;22469;48.150;14.004;2023-02-28T17:07:50;21.47;;;17.03;;
3259;SDS011;22469;48.150;14.004;2023-02-28T17:10:22;18.60;;;16.40;;
3259;SDS011;22469;48.150;14.004;2023-02-28T17:12:51;18.77;;;16.60;;
3259;SDS011;22469;48.150;14.004;2023-02-28T17:15:28;16.97;;;14.80;;
3259;SDS011;22469;48.150;14.004;2023-02-28T17:17:57;21.13;;;15.97;;
3259;SDS011;22469;48.150;14.004;2023-02-28T17:20:24;22.53;;;16.60;;
3259;SDS011;22469;48.150;14.004;2023-02-28T17:22:53;23.60;;;19.33;;
3259;SDS011;22469;48.150;14.004;2023-02-28T17:25:20;19.17;;;15.90;;
3259;SDS011;22469;48.150;14.004;2023-02-28T17:27:49;20.60;;;15.40;;
3259;SDS011;22469;48.150;14.004;2023-02-28T17:30:19;18.20;;;15.10;;
3259;SDS011;22469;48.150;14.004;2023-02-28T17:32:54;19.17;;;16.00;;
3259;SDS011;22469;48.150;14.004;2023-02-28T17:35:23;20.83;;;18.03;;
3259;SDS011;22469;48.150;14.004;2023-02-28T17:37:50;18.80;;;15.03;;
3259;SDS011;22469;48.150;14.004;2023-02-28T17:40:21;17.53;;;15.60;;
3259;SDS011;22469;48.150;14.004;2023-02-28T17:42:50;18.43;;;16.03;;
3259;SDS011;22469;48.150;14.004;2023-02-28T17:45:18;20.40;;;16.60;;
3259;SDS011;22469;48.150;14.004;2023-02-28T17:47:47;16.57;;;14.57;;
3259;SDS011;22469;48.150;14.004;2023-02-28T17:50:17;29.50;;;19.83;;
3259;SDS011;22469;48.150;14.004;2023-02-28T17:52:48;23.10;;;18.13;;
3259;SDS011;22469;48.150;14.004;2023-02-28T17:55:16;23.20;;;17.00;;
3259;SDS011;22469;48.150;14.004;2023-02-28T17:57:45;19.00;;;14.73;;